Portada
METAR-TAF:

METAR-TAF

Aeroports :

Huntsville, Alabama, Estats Units d'Amèrica

latitud: 34-51-41N, longitud: 086-33-26W, altitud: 230 m

Observació

L'informe es va fer fa 37 minuts, a les 22:55 UTC
Vent 7 kt del Sud/Sud-Est, variant entre Sud-Est i Sud
Temperatura 27°C
Humitat 74%
Pressió 1019 hPa
Visibilitat: 16.1 km
Núvols disperses a una alçada de 1700 ft
Cel ennuvolat a una alçada de 10000 ft

METAR: KMDQ 232255Z AUTO 15007KT 130V190 10SM SCT017 BKN100 27/22 A3009 RMK A02 T02700222

Hora: 18:32 (23:32 UTC)


TAF: manca

Observacions i pronòstics meteorològics de més de 4000 aeroports (METAR i TAF).

Les estacions disponibles són els punts grocs i vermells al mapa.

Posi el ratolí al punt desitjat per veure el nom de l'estació.

Feu clic per veure les observacions i els pronòstics meteorològics.

Per canviar el mapa: feu clic els botons verds amb una creu de color negre per apropar; al botó verd amb un guió per allunyar la imatge; o en les fletxes verdes per a mapes adjacents.


METAR-TAF: